sensor_id;sensor_type;location;lat;lon;timestamp;P1;durP1;ratioP1;P2;durP2;ratioP2
1613;SDS011;800;48.824;9.346;2023-04-06T00:01:33;8.90;;;7.37;;
1613;SDS011;800;48.824;9.346;2023-04-06T00:03:59;10.23;;;7.30;;
1613;SDS011;800;48.824;9.346;2023-04-06T00:06:25;8.07;;;7.20;;
1613;SDS011;800;48.824;9.346;2023-04-06T00:08:51;7.77;;;6.97;;
1613;SDS011;800;48.824;9.346;2023-04-06T00:11:17;9.87;;;6.23;;
1613;SDS011;800;48.824;9.346;2023-04-06T00:13:43;7.97;;;6.90;;
1613;SDS011;800;48.824;9.346;2023-04-06T00:16:08;7.77;;;6.23;;
1613;SDS011;800;48.824;9.346;2023-04-06T00:18:34;12.73;;;7.23;;
1613;SDS011;800;48.824;9.346;2023-04-06T00:21:00;9.43;;;7.37;;
1613;SDS011;800;48.824;9.346;2023-04-06T00:23:25;7.60;;;6.80;;
1613;SDS011;800;48.824;9.346;2023-04-06T00:25:51;8.43;;;7.17;;
1613;SDS011;800;48.824;9.346;2023-04-06T00:28:17;9.27;;;6.77;;
1613;SDS011;800;48.824;9.346;2023-04-06T00:30:42;10.60;;;7.30;;
1613;SDS011;800;48.824;9.346;2023-04-06T00:33:08;10.87;;;8.07;;
1613;SDS011;800;48.824;9.346;2023-04-06T00:35:34;8.20;;;6.90;;
1613;SDS011;800;48.824;9.346;2023-04-06T00:37:59;8.63;;;6.67;;
1613;SDS011;800;48.824;9.346;2023-04-06T00:40:25;7.23;;;6.07;;
1613;SDS011;800;48.824;9.346;2023-04-06T00:42:53;8.20;;;6.43;;
1613;SDS011;800;48.824;9.346;2023-04-06T00:45:19;6.70;;;6.00;;
1613;SDS011;800;48.824;9.346;2023-04-06T00:47:45;8.73;;;6.93;;
1613;SDS011;800;48.824;9.346;2023-04-06T00:50:10;7.00;;;6.00;;
1613;SDS011;800;48.824;9.346;2023-04-06T00:52:36;10.03;;;6.80;;
1613;SDS011;800;48.824;9.346;2023-04-06T00:55:02;8.30;;;5.70;;
1613;SDS011;800;48.824;9.346;2023-04-06T00:57:28;8.13;;;6.20;;
1613;SDS011;800;48.824;9.346;2023-04-06T00:59:54;9.97;;;6.10;;
1613;SDS011;800;48.824;9.346;2023-04-06T01:02:21;10.87;;;6.67;;
1613;SDS011;800;48.824;9.346;2023-04-06T01:04:46;8.70;;;7.07;;
1613;SDS011;800;48.824;9.346;2023-04-06T01:07:12;8.23;;;6.57;;
1613;SDS011;800;48.824;9.346;2023-04-06T01:09:37;7.03;;;6.30;;
1613;SDS011;800;48.824;9.346;2023-04-06T01:12:06;6.90;;;6.30;;
1613;SDS011;800;48.824;9.346;2023-04-06T01:14:31;9.17;;;6.30;;
1613;SDS011;800;48.824;9.346;2023-04-06T01:16:57;8.93;;;6.47;;
1613;SDS011;800;48.824;9.346;2023-04-06T01:19:25;7.70;;;6.20;;
1613;SDS011;800;48.824;9.346;2023-04-06T01:21:51;7.30;;;6.33;;
1613;SDS011;800;48.824;9.346;2023-04-06T01:24:18;7.83;;;6.97;;
1613;SDS011;800;48.824;9.346;2023-04-06T01:26:44;7.50;;;6.50;;
1613;SDS011;800;48.824;9.346;2023-04-06T01:29:10;8.97;;;6.60;;
1613;SDS011;800;48.824;9.346;2023-04-06T01:31:35;7.87;;;7.10;;
1613;SDS011;800;48.824;9.346;2023-04-06T01:34:01;6.23;;;5.63;;
1613;SDS011;800;48.824;9.346;2023-04-06T01:36:27;6.83;;;6.10;;
1613;SDS011;800;48.824;9.346;2023-04-06T01:38:52;9.60;;;6.40;;
1613;SDS011;800;48.824;9.346;2023-04-06T01:41:18;8.27;;;6.37;;
1613;SDS011;800;48.824;9.346;2023-04-06T01:43:44;9.23;;;7.03;;
1613;SDS011;800;48.824;9.346;2023-04-06T01:46:10;7.47;;;6.63;;
1613;SDS011;800;48.824;9.346;2023-04-06T01:48:36;8.27;;;6.30;;
1613;SDS011;800;48.824;9.346;2023-04-06T01:51:02;8.20;;;7.10;;
1613;SDS011;800;48.824;9.346;2023-04-06T01:53:27;9.27;;;6.93;;
1613;SDS011;800;48.824;9.346;2023-04-06T01:55:53;8.23;;;6.70;;
1613;SDS011;800;48.824;9.346;2023-04-06T01:58:18;8.20;;;6.83;;
1613;SDS011;800;48.824;9.346;2023-04-06T02:00:44;10.00;;;6.63;;
1613;SDS011;800;48.824;9.346;2023-04-06T02:03:10;10.07;;;7.47;;
1613;SDS011;800;48.824;9.346;2023-04-06T02:05:36;8.60;;;6.50;;
1613;SDS011;800;48.824;9.346;2023-04-06T02:08:06;8.30;;;6.03;;
1613;SDS011;800;48.824;9.346;2023-04-06T02:10:32;13.60;;;7.37;;
1613;SDS011;800;48.824;9.346;2023-04-06T02:12:59;7.77;;;6.73;;
1613;SDS011;800;48.824;9.346;2023-04-06T02:15:25;8.57;;;7.13;;
1613;SDS011;800;48.824;9.346;2023-04-06T02:17:51;8.30;;;7.37;;
1613;SDS011;800;48.824;9.346;2023-04-06T02:20:17;8.10;;;6.80;;
1613;SDS011;800;48.824;9.346;2023-04-06T02:22:42;8.77;;;7.07;;
1613;SDS011;800;48.824;9.346;2023-04-06T02:25:08;8.23;;;6.80;;
1613;SDS011;800;48.824;9.346;2023-04-06T02:27:34;7.23;;;6.50;;
1613;SDS011;800;48.824;9.346;2023-04-06T02:30:01;7.30;;;6.40;;
1613;SDS011;800;48.824;9.346;2023-04-06T02:32:27;8.80;;;6.37;;
1613;SDS011;800;48.824;9.346;2023-04-06T02:34:52;8.27;;;6.90;;
1613;SDS011;800;48.824;9.346;2023-04-06T02:37:18;8.20;;;6.70;;
1613;SDS011;800;48.824;9.346;2023-04-06T02:39:44;8.37;;;7.00;;
1613;SDS011;800;48.824;9.346;2023-04-06T02:42:10;7.23;;;6.30;;
1613;SDS011;800;48.824;9.346;2023-04-06T02:44:35;7.37;;;6.60;;
1613;SDS011;800;48.824;9.346;2023-04-06T02:47:01;8.47;;;6.47;;
1613;SDS011;800;48.824;9.346;2023-04-06T02:49:27;13.23;;;6.53;;
1613;SDS011;800;48.824;9.346;2023-04-06T02:51:52;8.37;;;6.63;;
1613;SDS011;800;48.824;9.346;2023-04-06T02:54:18;7.93;;;6.80;;
1613;SDS011;800;48.824;9.346;2023-04-06T02:56:44;10.57;;;6.27;;
1613;SDS011;800;48.824;9.346;2023-04-06T02:59:10;8.20;;;6.53;;
1613;SDS011;800;48.824;9.346;2023-04-06T03:01:36;8.03;;;7.23;;
1613;SDS011;800;48.824;9.346;2023-04-06T03:04:01;8.40;;;6.60;;
1613;SDS011;800;48.824;9.346;2023-04-06T03:06:27;10.30;;;7.07;;
1613;SDS011;800;48.824;9.346;2023-04-06T03:08:53;8.10;;;6.87;;
1613;SDS011;800;48.824;9.346;2023-04-06T03:11:19;7.60;;;6.70;;
1613;SDS011;800;48.824;9.346;2023-04-06T03:13:45;8.43;;;6.93;;
1613;SDS011;800;48.824;9.346;2023-04-06T03:16:11;8.27;;;6.47;;
1613;SDS011;800;48.824;9.346;2023-04-06T03:18:37;11.53;;;7.20;;
1613;SDS011;800;48.824;9.346;2023-04-06T03:21:03;11.27;;;6.57;;
1613;SDS011;800;48.824;9.346;2023-04-06T03:23:28;8.00;;;7.03;;
1613;SDS011;800;48.824;9.346;2023-04-06T03:25:54;8.90;;;6.63;;
1613;SDS011;800;48.824;9.346;2023-04-06T03:28:20;7.40;;;6.30;;
1613;SDS011;800;48.824;9.346;2023-04-06T03:30:46;11.23;;;8.00;;
1613;SDS011;800;48.824;9.346;2023-04-06T03:33:11;9.33;;;7.60;;
1613;SDS011;800;48.824;9.346;2023-04-06T03:35:37;10.37;;;7.33;;
1613;SDS011;800;48.824;9.346;2023-04-06T03:38:03;7.83;;;7.03;;
1613;SDS011;800;48.824;9.346;2023-04-06T03:40:30;9.93;;;6.90;;
1613;SDS011;800;48.824;9.346;2023-04-06T03:42:56;8.37;;;6.97;;
1613;SDS011;800;48.824;9.346;2023-04-06T03:45:22;9.67;;;7.17;;
1613;SDS011;800;48.824;9.346;2023-04-06T03:47:47;6.73;;;6.10;;
1613;SDS011;800;48.824;9.346;2023-04-06T03:50:13;9.23;;;7.07;;
1613;SDS011;800;48.824;9.346;2023-04-06T03:52:39;7.33;;;6.10;;
1613;SDS011;800;48.824;9.346;2023-04-06T03:55:04;8.43;;;7.10;;
1613;SDS011;800;48.824;9.346;2023-04-06T03:57:31;9.10;;;6.47;;
1613;SDS011;800;48.824;9.346;2023-04-06T03:59:56;9.67;;;6.47;;
1613;SDS011;800;48.824;9.346;2023-04-06T04:02:22;8.00;;;7.17;;
1613;SDS011;800;48.824;9.346;2023-04-06T04:04:48;7.70;;;6.90;;
1613;SDS011;800;48.824;9.346;2023-04-06T04:07:13;7.43;;;6.63;;
1613;SDS011;800;48.824;9.346;2023-04-06T04:09:39;10.30;;;6.83;;
1613;SDS011;800;48.824;9.346;2023-04-06T04:12:05;9.60;;;7.27;;
1613;SDS011;800;48.824;9.346;2023-04-06T04:14:31;9.57;;;7.40;;
1613;SDS011;800;48.824;9.346;2023-04-06T04:16:56;11.20;;;7.47;;
1613;SDS011;800;48.824;9.346;2023-04-06T04:19:22;8.50;;;6.60;;
1613;SDS011;800;48.824;9.346;2023-04-06T04:21:47;8.87;;;6.77;;
1613;SDS011;800;48.824;9.346;2023-04-06T04:24:13;9.03;;;7.27;;
1613;SDS011;800;48.824;9.346;2023-04-06T04:26:39;8.10;;;7.30;;
1613;SDS011;800;48.824;9.346;2023-04-06T04:29:05;7.60;;;6.50;;
1613;SDS011;800;48.824;9.346;2023-04-06T04:31:31;9.63;;;7.37;;
1613;SDS011;800;48.824;9.346;2023-04-06T04:33:57;10.30;;;6.07;;
1613;SDS011;800;48.824;9.346;2023-04-06T04:36:24;9.07;;;6.47;;
1613;SDS011;800;48.824;9.346;2023-04-06T04:38:50;8.50;;;6.57;;
1613;SDS011;800;48.824;9.346;2023-04-06T04:41:16;11.27;;;7.40;;
1613;SDS011;800;48.824;9.346;2023-04-06T04:43:42;9.20;;;6.90;;
1613;SDS011;800;48.824;9.346;2023-04-06T04:46:07;7.80;;;6.40;;
1613;SDS011;800;48.824;9.346;2023-04-06T04:48:33;12.03;;;7.47;;
1613;SDS011;800;48.824;9.346;2023-04-06T04:50:59;7.80;;;6.60;;
1613;SDS011;800;48.824;9.346;2023-04-06T04:53:25;7.40;;;6.57;;
1613;SDS011;800;48.824;9.346;2023-04-06T04:55:50;12.17;;;6.70;;
1613;SDS011;800;48.824;9.346;2023-04-06T04:58:16;9.37;;;6.87;;
1613;SDS011;800;48.824;9.346;2023-04-06T05:00:44;7.03;;;6.13;;
1613;SDS011;800;48.824;9.346;2023-04-06T05:03:28;8.03;;;6.43;;
1613;SDS011;800;48.824;9.346;2023-04-06T05:05:54;6.80;;;6.10;;
1613;SDS011;800;48.824;9.346;2023-04-06T05:08:20;6.60;;;6.00;;
1613;SDS011;800;48.824;9.346;2023-04-06T05:10:46;8.10;;;6.77;;
1613;SDS011;800;48.824;9.346;2023-04-06T05:13:13;6.77;;;6.03;;
1613;SDS011;800;48.824;9.346;2023-04-06T05:15:39;6.90;;;6.17;;
1613;SDS011;800;48.824;9.346;2023-04-06T05:18:05;7.40;;;6.60;;
1613;SDS011;800;48.824;9.346;2023-04-06T05:20:31;9.07;;;6.70;;
1613;SDS011;800;48.824;9.346;2023-04-06T05:22:57;7.87;;;6.30;;
1613;SDS011;800;48.824;9.346;2023-04-06T05:25:23;8.93;;;8.00;;
1613;SDS011;800;48.824;9.346;2023-04-06T05:27:49;8.50;;;6.67;;
1613;SDS011;800;48.824;9.346;2023-04-06T05:30:21;7.93;;;7.13;;
1613;SDS011;800;48.824;9.346;2023-04-06T05:32:47;8.50;;;7.17;;
1613;SDS011;800;48.824;9.346;2023-04-06T05:35:12;12.40;;;6.80;;
1613;SDS011;800;48.824;9.346;2023-04-06T05:37:38;8.30;;;7.00;;
1613;SDS011;800;48.824;9.346;2023-04-06T05:40:06;9.47;;;7.53;;
1613;SDS011;800;48.824;9.346;2023-04-06T05:42:39;12.40;;;7.80;;
1613;SDS011;800;48.824;9.346;2023-04-06T05:45:07;12.80;;;8.27;;
1613;SDS011;800;48.824;9.346;2023-04-06T05:47:35;8.47;;;7.53;;
1613;SDS011;800;48.824;9.346;2023-04-06T05:50:01;9.17;;;7.07;;
1613;SDS011;800;48.824;9.346;2023-04-06T05:52:27;8.13;;;7.33;;
1613;SDS011;800;48.824;9.346;2023-04-06T05:54:53;10.63;;;7.27;;
1613;SDS011;800;48.824;9.346;2023-04-06T05:57:19;9.20;;;7.00;;
1613;SDS011;800;48.824;9.346;2023-04-06T05:59:45;9.00;;;8.10;;
1613;SDS011;800;48.824;9.346;2023-04-06T06:02:10;9.93;;;6.63;;
1613;SDS011;800;48.824;9.346;2023-04-06T06:04:36;8.50;;;7.20;;
1613;SDS011;800;48.824;9.346;2023-04-06T06:07:02;8.70;;;7.27;;
1613;SDS011;800;48.824;9.346;2023-04-06T06:09:27;8.30;;;7.23;;
1613;SDS011;800;48.824;9.346;2023-04-06T06:11:53;10.40;;;7.47;;
1613;SDS011;800;48.824;9.346;2023-04-06T06:14:19;8.57;;;7.70;;
1613;SDS011;800;48.824;9.346;2023-04-06T06:16:45;10.33;;;7.70;;
1613;SDS011;800;48.824;9.346;2023-04-06T06:19:11;11.60;;;7.60;;
1613;SDS011;800;48.824;9.346;2023-04-06T06:21:36;12.03;;;9.10;;
1613;SDS011;800;48.824;9.346;2023-04-06T06:24:02;9.10;;;8.10;;
1613;SDS011;800;48.824;9.346;2023-04-06T06:26:28;10.50;;;7.23;;
1613;SDS011;800;48.824;9.346;2023-04-06T06:28:53;8.70;;;7.80;;
1613;SDS011;800;48.824;9.346;2023-04-06T06:31:20;10.00;;;8.30;;
1613;SDS011;800;48.824;9.346;2023-04-06T06:33:47;7.93;;;7.13;;
1613;SDS011;800;48.824;9.346;2023-04-06T06:36:15;10.40;;;8.20;;
1613;SDS011;800;48.824;9.346;2023-04-06T06:38:42;8.53;;;7.70;;
1613;SDS011;800;48.824;9.346;2023-04-06T06:41:07;8.50;;;7.13;;
1613;SDS011;800;48.824;9.346;2023-04-06T06:43:33;9.20;;;7.73;;
1613;SDS011;800;48.824;9.346;2023-04-06T06:45:59;11.30;;;8.73;;
1613;SDS011;800;48.824;9.346;2023-04-06T06:48:24;9.27;;;7.57;;
1613;SDS011;800;48.824;9.346;2023-04-06T06:50:50;10.57;;;8.70;;
1613;SDS011;800;48.824;9.346;2023-04-06T06:53:16;11.93;;;8.40;;
1613;SDS011;800;48.824;9.346;2023-04-06T06:55:42;11.87;;;8.77;;
1613;SDS011;800;48.824;9.346;2023-04-06T06:58:09;10.73;;;9.10;;
1613;SDS011;800;48.824;9.346;2023-04-06T07:00:34;9.53;;;8.50;;
1613;SDS011;800;48.824;9.346;2023-04-06T07:03:00;12.50;;;8.30;;
1613;SDS011;800;48.824;9.346;2023-04-06T07:05:26;9.17;;;7.73;;
1613;SDS011;800;48.824;9.346;2023-04-06T07:07:52;9.23;;;8.33;;
1613;SDS011;800;48.824;9.346;2023-04-06T07:10:17;9.67;;;8.60;;
1613;SDS011;800;48.824;9.346;2023-04-06T07:12:43;9.50;;;8.47;;
1613;SDS011;800;48.824;9.346;2023-04-06T07:15:09;12.93;;;8.73;;
1613;SDS011;800;48.824;9.346;2023-04-06T07:17:35;13.13;;;8.67;;
1613;SDS011;800;48.824;9.346;2023-04-06T07:20:00;9.17;;;8.23;;
1613;SDS011;800;48.824;9.346;2023-04-06T07:22:26;12.07;;;9.00;;
1613;SDS011;800;48.824;9.346;2023-04-06T07:24:52;12.60;;;8.90;;
1613;SDS011;800;48.824;9.346;2023-04-06T07:27:17;9.77;;;8.50;;
1613;SDS011;800;48.824;9.346;2023-04-06T07:29:43;9.80;;;8.27;;
1613;SDS011;800;48.824;9.346;2023-04-06T07:32:09;10.80;;;9.70;;
1613;SDS011;800;48.824;9.346;2023-04-06T07:34:35;9.77;;;8.77;;
1613;SDS011;800;48.824;9.346;2023-04-06T07:37:01;10.20;;;9.10;;
1613;SDS011;800;48.824;9.346;2023-04-06T07:39:28;10.10;;;9.03;;
1613;SDS011;800;48.824;9.346;2023-04-06T07:41:53;12.27;;;9.87;;
1613;SDS011;800;48.824;9.346;2023-04-06T07:44:19;10.30;;;9.20;;
1613;SDS011;800;48.824;9.346;2023-04-06T07:46:45;12.67;;;8.97;;
1613;SDS011;800;48.824;9.346;2023-04-06T07:49:11;12.07;;;9.87;;
1613;SDS011;800;48.824;9.346;2023-04-06T07:51:37;8.60;;;7.77;;
1613;SDS011;800;48.824;9.346;2023-04-06T07:54:04;8.50;;;7.70;;
1613;SDS011;800;48.824;9.346;2023-04-06T07:56:30;9.63;;;8.63;;
1613;SDS011;800;48.824;9.346;2023-04-06T07:58:55;10.10;;;9.10;;
1613;SDS011;800;48.824;9.346;2023-04-06T08:01:23;10.23;;;9.23;;
1613;SDS011;800;48.824;9.346;2023-04-06T08:03:49;11.53;;;10.30;;
1613;SDS011;800;48.824;9.346;2023-04-06T08:06:15;9.53;;;8.63;;
1613;SDS011;800;48.824;9.346;2023-04-06T08:08:41;12.40;;;9.43;;
1613;SDS011;800;48.824;9.346;2023-04-06T08:11:07;10.03;;;9.00;;
1613;SDS011;800;48.824;9.346;2023-04-06T08:13:33;10.90;;;8.90;;
1613;SDS011;800;48.824;9.346;2023-04-06T08:15:59;9.70;;;8.80;;
1613;SDS011;800;48.824;9.346;2023-04-06T08:18:25;10.60;;;9.30;;
1613;SDS011;800;48.824;9.346;2023-04-06T08:20:51;11.87;;;9.43;;
1613;SDS011;800;48.824;9.346;2023-04-06T08:23:16;10.30;;;9.20;;
1613;SDS011;800;48.824;9.346;2023-04-06T08:25:42;9.90;;;8.90;;
1613;SDS011;800;48.824;9.346;2023-04-06T08:28:08;10.33;;;8.50;;
1613;SDS011;800;48.824;9.346;2023-04-06T08:30:34;11.10;;;9.07;;
1613;SDS011;800;48.824;9.346;2023-04-06T08:33:00;11.63;;;8.60;;
1613;SDS011;800;48.824;9.346;2023-04-06T08:35:26;12.60;;;9.90;;
1613;SDS011;800;48.824;9.346;2023-04-06T08:37:52;13.63;;;9.37;;
1613;SDS011;800;48.824;9.346;2023-04-06T08:40:18;12.97;;;10.27;;
1613;SDS011;800;48.824;9.346;2023-04-06T08:42:50;14.20;;;10.20;;
1613;SDS011;800;48.824;9.346;2023-04-06T08:45:19;10.50;;;9.00;;
1613;SDS011;800;48.824;9.346;2023-04-06T08:47:46;11.33;;;8.97;;
1613;SDS011;800;48.824;9.346;2023-04-06T08:50:17;12.80;;;10.00;;
1613;SDS011;800;48.824;9.346;2023-04-06T08:52:43;13.43;;;9.83;;
1613;SDS011;800;48.824;9.346;2023-04-06T08:55:11;11.53;;;9.10;;
1613;SDS011;800;48.824;9.346;2023-04-06T08:57:37;10.33;;;9.10;;
1613;SDS011;800;48.824;9.346;2023-04-06T09:00:03;11.47;;;10.30;;
1613;SDS011;800;48.824;9.346;2023-04-06T09:02:31;11.73;;;9.90;;
1613;SDS011;800;48.824;9.346;2023-04-06T09:04:57;11.00;;;9.77;;
1613;SDS011;800;48.824;9.346;2023-04-06T09:07:23;13.33;;;9.90;;
1613;SDS011;800;48.824;9.346;2023-04-06T09:09:49;11.30;;;9.60;;
1613;SDS011;800;48.824;9.346;2023-04-06T09:12:29;10.73;;;9.57;;
1613;SDS011;800;48.824;9.346;2023-04-06T09:14:56;10.83;;;9.53;;
1613;SDS011;800;48.824;9.346;2023-04-06T09:17:23;12.10;;;10.00;;
1613;SDS011;800;48.824;9.346;2023-04-06T09:19:53;10.10;;;9.13;;
1613;SDS011;800;48.824;9.346;2023-04-06T09:22:19;12.40;;;9.00;;
1613;SDS011;800;48.824;9.346;2023-04-06T09:24:49;11.30;;;9.90;;
1613;SDS011;800;48.824;9.346;2023-04-06T09:27:16;11.93;;;10.10;;
1613;SDS011;800;48.824;9.346;2023-04-06T09:29:43;12.37;;;10.17;;
1613;SDS011;800;48.824;9.346;2023-04-06T09:32:09;11.53;;;9.67;;
1613;SDS011;800;48.824;9.346;2023-04-06T09:34:39;10.67;;;9.00;;
1613;SDS011;800;48.824;9.346;2023-04-06T09:37:15;10.70;;;9.60;;
1613;SDS011;800;48.824;9.346;2023-04-06T09:39:41;12.93;;;9.80;;
1613;SDS011;800;48.824;9.346;2023-04-06T09:42:06;12.60;;;10.00;;
1613;SDS011;800;48.824;9.346;2023-04-06T09:44:32;10.53;;;9.43;;
1613;SDS011;800;48.824;9.346;2023-04-06T09:46:58;12.90;;;10.07;;
1613;SDS011;800;48.824;9.346;2023-04-06T09:49:24;12.53;;;10.13;;
1613;SDS011;800;48.824;9.346;2023-04-06T09:51:57;10.50;;;9.53;;
1613;SDS011;800;48.824;9.346;2023-04-06T09:54:26;11.00;;;9.57;;
1613;SDS011;800;48.824;9.346;2023-04-06T09:57:04;11.00;;;9.80;;
1613;SDS011;800;48.824;9.346;2023-04-06T09:59:50;12.80;;;9.60;;
1613;SDS011;800;48.824;9.346;2023-04-06T10:02:39;9.80;;;8.80;;
1613;SDS011;800;48.824;9.346;2023-04-06T10:05:09;10.10;;;9.07;;
1613;SDS011;800;48.824;9.346;2023-04-06T10:07:43;13.37;;;9.47;;
1613;SDS011;800;48.824;9.346;2023-04-06T10:10:10;11.03;;;9.87;;
1613;SDS011;800;48.824;9.346;2023-04-06T10:12:37;10.90;;;9.03;;
1613;SDS011;800;48.824;9.346;2023-04-06T10:15:04;9.53;;;8.60;;
1613;SDS011;800;48.824;9.346;2023-04-06T10:17:31;11.50;;;9.03;;
1613;SDS011;800;48.824;9.346;2023-04-06T10:20:02;9.57;;;8.67;;
1613;SDS011;800;48.824;9.346;2023-04-06T10:22:44;10.10;;;9.10;;
1613;SDS011;800;48.824;9.346;2023-04-06T10:25:31;8.40;;;7.60;;
1613;SDS011;800;48.824;9.346;2023-04-06T10:30:29;9.27;;;7.83;;
1613;SDS011;800;48.824;9.346;2023-04-06T10:32:55;9.07;;;8.17;;
1613;SDS011;800;48.824;9.346;2023-04-06T10:35:21;12.17;;;8.90;;
1613;SDS011;800;48.824;9.346;2023-04-06T10:37:48;9.63;;;8.37;;
1613;SDS011;800;48.824;9.346;2023-04-06T10:40:19;9.67;;;8.00;;
1613;SDS011;800;48.824;9.346;2023-04-06T10:42:50;8.90;;;8.00;;
1613;SDS011;800;48.824;9.346;2023-04-06T10:45:23;7.83;;;7.13;;
1613;SDS011;800;48.824;9.346;2023-04-06T10:47:56;9.30;;;8.40;;
1613;SDS011;800;48.824;9.346;2023-04-06T10:50:22;9.07;;;8.17;;
1613;SDS011;800;48.824;9.346;2023-04-06T10:53:01;9.30;;;7.60;;
1613;SDS011;800;48.824;9.346;2023-04-06T10:55:28;9.40;;;7.97;;
1613;SDS011;800;48.824;9.346;2023-04-06T10:57:54;9.67;;;7.60;;
1613;SDS011;800;48.824;9.346;2023-04-06T11:00:20;9.20;;;8.07;;
1613;SDS011;800;48.824;9.346;2023-04-06T11:02:46;8.53;;;7.53;;
1613;SDS011;800;48.824;9.346;2023-04-06T11:05:12;9.50;;;8.50;;
1613;SDS011;800;48.824;9.346;2023-04-06T11:07:39;8.63;;;7.87;;
1613;SDS011;800;48.824;9.346;2023-04-06T11:10:05;8.03;;;7.30;;
1613;SDS011;800;48.824;9.346;2023-04-06T11:12:31;9.10;;;7.10;;
1613;SDS011;800;48.824;9.346;2023-04-06T11:14:58;7.37;;;6.77;;
1613;SDS011;800;48.824;9.346;2023-04-06T11:17:33;7.60;;;6.80;;
1613;SDS011;800;48.824;9.346;2023-04-06T11:20:00;9.37;;;8.40;;
1613;SDS011;800;48.824;9.346;2023-04-06T11:22:27;8.30;;;7.10;;
1613;SDS011;800;48.824;9.346;2023-04-06T11:25:03;8.33;;;7.60;;
1613;SDS011;800;48.824;9.346;2023-04-06T11:27:30;8.07;;;7.27;;
1613;SDS011;800;48.824;9.346;2023-04-06T11:29:57;7.33;;;6.70;;
1613;SDS011;800;48.824;9.346;2023-04-06T11:32:24;8.13;;;7.33;;
1613;SDS011;800;48.824;9.346;2023-04-06T11:34:49;5.90;;;5.30;;
1613;SDS011;800;48.824;9.346;2023-04-06T11:37:15;9.17;;;6.57;;
1613;SDS011;800;48.824;9.346;2023-04-06T11:39:48;7.20;;;6.60;;
1613;SDS011;800;48.824;9.346;2023-04-06T11:42:25;7.07;;;5.30;;
1613;SDS011;800;48.824;9.346;2023-04-06T11:44:54;6.90;;;6.20;;
1613;SDS011;800;48.824;9.346;2023-04-06T11:47:32;6.30;;;5.70;;
1613;SDS011;800;48.824;9.346;2023-04-06T11:50:13;5.90;;;5.30;;
1613;SDS011;800;48.824;9.346;2023-04-06T11:52:42;6.80;;;6.20;;
1613;SDS011;800;48.824;9.346;2023-04-06T11:55:14;7.33;;;6.27;;
1613;SDS011;800;48.824;9.346;2023-04-06T11:57:41;7.13;;;6.43;;
1613;SDS011;800;48.824;9.346;2023-04-06T12:00:08;6.07;;;5.57;;
1613;SDS011;800;48.824;9.346;2023-04-06T12:02:35;7.40;;;5.43;;
1613;SDS011;800;48.824;9.346;2023-04-06T12:05:02;6.00;;;5.50;;
1613;SDS011;800;48.824;9.346;2023-04-06T12:07:28;5.40;;;4.90;;
1613;SDS011;800;48.824;9.346;2023-04-06T12:09:55;5.93;;;5.37;;
1613;SDS011;800;48.824;9.346;2023-04-06T12:12:21;5.93;;;5.33;;
1613;SDS011;800;48.824;9.346;2023-04-06T12:14:46;7.20;;;6.40;;
1613;SDS011;800;48.824;9.346;2023-04-06T12:17:12;8.67;;;6.27;;
1613;SDS011;800;48.824;9.346;2023-04-06T12:19:38;6.17;;;5.57;;
1613;SDS011;800;48.824;9.346;2023-04-06T12:22:03;7.07;;;6.40;;
1613;SDS011;800;48.824;9.346;2023-04-06T12:24:29;5.50;;;5.00;;
1613;SDS011;800;48.824;9.346;2023-04-06T12:26:54;6.03;;;5.53;;
1613;SDS011;800;48.824;9.346;2023-04-06T12:29:20;6.03;;;5.47;;
1613;SDS011;800;48.824;9.346;2023-04-06T12:31:46;7.40;;;6.20;;
1613;SDS011;800;48.824;9.346;2023-04-06T12:34:11;6.23;;;5.67;;
1613;SDS011;800;48.824;9.346;2023-04-06T12:36:37;6.33;;;5.73;;
1613;SDS011;800;48.824;9.346;2023-04-06T12:39:03;6.77;;;5.80;;
1613;SDS011;800;48.824;9.346;2023-04-06T12:41:29;6.60;;;6.00;;
1613;SDS011;800;48.824;9.346;2023-04-06T12:43:55;6.20;;;5.70;;
1613;SDS011;800;48.824;9.346;2023-04-06T12:46:21;5.50;;;5.00;;
1613;SDS011;800;48.824;9.346;2023-04-06T12:48:48;6.20;;;5.60;;
1613;SDS011;800;48.824;9.346;2023-04-06T12:51:14;7.20;;;6.03;;
1613;SDS011;800;48.824;9.346;2023-04-06T12:53:40;6.20;;;5.60;;
1613;SDS011;800;48.824;9.346;2023-04-06T12:56:13;6.33;;;5.77;;
1613;SDS011;800;48.824;9.346;2023-04-06T12:58:40;6.50;;;6.00;;
1613;SDS011;800;48.824;9.346;2023-04-06T13:01:06;5.77;;;5.17;;
1613;SDS011;800;48.824;9.346;2023-04-06T13:03:33;7.00;;;6.40;;
1613;SDS011;800;48.824;9.346;2023-04-06T13:05:59;10.70;;;6.30;;
1613;SDS011;800;48.824;9.346;2023-04-06T13:08:26;6.47;;;5.77;;
1613;SDS011;800;48.824;9.346;2023-04-06T13:10:52;7.10;;;6.40;;
1613;SDS011;800;48.824;9.346;2023-04-06T13:13:22;6.70;;;5.93;;
1613;SDS011;800;48.824;9.346;2023-04-06T13:15:49;7.77;;;7.07;;
1613;SDS011;800;48.824;9.346;2023-04-06T13:18:16;6.90;;;6.07;;
1613;SDS011;800;48.824;9.346;2023-04-06T13:20:42;6.83;;;6.10;;
1613;SDS011;800;48.824;9.346;2023-04-06T13:23:08;7.70;;;6.10;;
1613;SDS011;800;48.824;9.346;2023-04-06T13:25:33;6.17;;;5.57;;
1613;SDS011;800;48.824;9.346;2023-04-06T13:27:59;6.77;;;6.07;;
1613;SDS011;800;48.824;9.346;2023-04-06T13:30:25;5.73;;;5.00;;
1613;SDS011;800;48.824;9.346;2023-04-06T13:32:51;7.00;;;6.30;;
1613;SDS011;800;48.824;9.346;2023-04-06T13:35:16;6.97;;;5.70;;
1613;SDS011;800;48.824;9.346;2023-04-06T13:37:43;6.57;;;5.90;;
1613;SDS011;800;48.824;9.346;2023-04-06T13:40:09;6.13;;;5.63;;
1613;SDS011;800;48.824;9.346;2023-04-06T13:42:35;7.60;;;5.83;;
1613;SDS011;800;48.824;9.346;2023-04-06T13:45:01;7.03;;;5.40;;
1613;SDS011;800;48.824;9.346;2023-04-06T13:47:26;5.80;;;5.30;;
1613;SDS011;800;48.824;9.346;2023-04-06T13:49:52;6.63;;;6.03;;
1613;SDS011;800;48.824;9.346;2023-04-06T13:52:20;6.50;;;5.80;;
1613;SDS011;800;48.824;9.346;2023-04-06T13:54:45;6.43;;;5.63;;
1613;SDS011;800;48.824;9.346;2023-04-06T13:57:11;6.10;;;5.50;;
1613;SDS011;800;48.824;9.346;2023-04-06T13:59:38;5.90;;;5.30;;
1613;SDS011;800;48.824;9.346;2023-04-06T14:02:05;6.53;;;5.93;;
1613;SDS011;800;48.824;9.346;2023-04-06T14:04:31;6.50;;;5.97;;
1613;SDS011;800;48.824;9.346;2023-04-06T14:06:58;6.30;;;5.70;;
1613;SDS011;800;48.824;9.346;2023-04-06T14:09:23;6.27;;;5.67;;
1613;SDS011;800;48.824;9.346;2023-04-06T14:11:49;5.70;;;5.20;;
1613;SDS011;800;48.824;9.346;2023-04-06T14:14:15;6.73;;;5.60;;
1613;SDS011;800;48.824;9.346;2023-04-06T14:16:42;6.30;;;5.00;;
1613;SDS011;800;48.824;9.346;2023-04-06T14:19:11;5.70;;;5.20;;
1613;SDS011;800;48.824;9.346;2023-04-06T14:21:44;7.70;;;5.13;;
1613;SDS011;800;48.824;9.346;2023-04-06T14:24:10;8.10;;;4.90;;
1613;SDS011;800;48.824;9.346;2023-04-06T14:26:37;6.13;;;5.07;;
1613;SDS011;800;48.824;9.346;2023-04-06T14:29:04;6.00;;;5.40;;
1613;SDS011;800;48.824;9.346;2023-04-06T14:31:30;6.37;;;5.37;;
1613;SDS011;800;48.824;9.346;2023-04-06T14:33:56;5.63;;;5.13;;
1613;SDS011;800;48.824;9.346;2023-04-06T14:36:22;5.40;;;4.90;;
1613;SDS011;800;48.824;9.346;2023-04-06T14:38:48;5.83;;;5.23;;
1613;SDS011;800;48.824;9.346;2023-04-06T14:41:15;6.13;;;5.57;;
1613;SDS011;800;48.824;9.346;2023-04-06T14:43:42;5.47;;;5.00;;
1613;SDS011;800;48.824;9.346;2023-04-06T14:46:07;8.17;;;5.57;;
1613;SDS011;800;48.824;9.346;2023-04-06T14:48:34;8.80;;;5.07;;
1613;SDS011;800;48.824;9.346;2023-04-06T14:51:00;7.30;;;5.60;;
1613;SDS011;800;48.824;9.346;2023-04-06T14:53:25;6.50;;;5.87;;
1613;SDS011;800;48.824;9.346;2023-04-06T14:55:52;5.83;;;5.33;;
1613;SDS011;800;48.824;9.346;2023-04-06T14:58:21;6.93;;;6.23;;
1613;SDS011;800;48.824;9.346;2023-04-06T15:00:47;5.53;;;5.03;;
1613;SDS011;800;48.824;9.346;2023-04-06T15:03:13;5.57;;;5.07;;
1613;SDS011;800;48.824;9.346;2023-04-06T15:05:39;5.80;;;5.30;;
1613;SDS011;800;48.824;9.346;2023-04-06T15:08:05;6.27;;;5.67;;
1613;SDS011;800;48.824;9.346;2023-04-06T15:10:31;6.00;;;4.97;;
1613;SDS011;800;48.824;9.346;2023-04-06T15:12:57;5.90;;;5.30;;
1613;SDS011;800;48.824;9.346;2023-04-06T15:15:23;6.90;;;6.20;;
1613;SDS011;800;48.824;9.346;2023-04-06T15:17:48;7.30;;;5.97;;
1613;SDS011;800;48.824;9.346;2023-04-06T15:20:14;6.77;;;5.67;;
1613;SDS011;800;48.824;9.346;2023-04-06T15:22:39;6.00;;;5.40;;
1613;SDS011;800;48.824;9.346;2023-04-06T15:25:05;7.20;;;5.87;;